Airfield :
LOGIN :

Register | Disclaimer

   EN    FR    IT 

 










Legend :    VFR   Marginal VFR   IFR   Intensive IFR   Very Intensive IFR
Visi :
Ceiling :
>= 8 km
>= 3000ft
5 to 8 km
1000 to 3000 ft
1500m to 5 km
500 to 1000 ft
800 to 1500m
200 to 500 ft
< 800m
< 200 ft
Symbols :   Thunderstorms  Fog  Heavy snow  Heavy precipitations  Wind > 20 kt
SIGMETs :     Misc.  Thunderstorms  Icing  Turbulence  Mountain Waves  Volcanic Ashes







- Airport Elevation : 242 ft
- IATA code : DUB


EIDW - Dublin

CURRENT METAR :
  • 250100Z 04004KT 310V060 9999 FEW010 SCT015 BKN025 13/13 Q1020 NOSIG

EXPIRED METARs :
  • 250030Z 01004KT 320V060 9999 FEW010 BKN015 BKN025 13/12 Q1020 NOSIG
  • 250000Z VRB03KT 9999 FEW010 SCT015 BKN100 13/12 Q1020 NOSIG
  • 242330Z VRB03KT 9999 FEW010 SCT015 BKN100 12/12 Q1020 NOSIG
  • 242300Z 08004KT 9999 FEW010 SCT100 12/11 Q1020 NOSIG
  • 242230Z 36001KT 9999 FEW008 SCT016 BKN100 12/11 Q1020 NOSIG

TAF TAF EIDW
Valid from the 25 at 00:00 until the 26 at 00:00 UTC


242300Z 2500/2524 VRB03KT 9999 FEW010
PROB40
TEMPO 2500/2506 3000 BR
PROB30
TEMPO 2500/2506 BKN004
BECMG 2506/2509 02007KT
BECMG 2511/2514 05010KT
BECMG 2521/2524 03005KT
No reported NOTAMs for that airfield.



MET'MAP, your aeronautical weather chart ! - Copyright ORBIFLY December 2007 - Disclaimer

ORBIFLY MET'MAP TEAM :

Programming & Development : Alexandra Zaïnal
Concept & Development : Baudouin d'Aumeries
Co-Development & Prog : Marc-Olivier Méhu
Technical & hardware support : Manuel Goepfert

Contact : metmap@orbifly.com




SOURCES & CREDITS :

   NOAA